Aston Cantlow, United Kingdom
Current Conditions -  °F | °C
As of 8:50 PM on Tuesday 21 Oct 2014 (Local Time) from EGBB Reporting Station
Light Rain Light Rain  
Wind Chill: 36°   Ceiling: 3200
Heat Index: 45°   Visibility: 6mi
Dew Point: 39°   Wind: 21mph
Humidity: 81%   Direction: 320°NW
Pressure: 30.03"   Gusts: NA
Location:  52.29°N, 1.78°W
Report Text: EGBB 211950Z 32018KT 9999 -RA FEW025 BKN032 07/04 Q1017
Loading
Personal Weather Stations






























Interactive Weather Map New forecast layout! Learn more

10-Day Weather Forecast

Advertisements
Track Severe Weather on mobile